Time;durP1;ratioP1;P1;durP2;ratioP2;P2;SDS_P1;SDS_P2;PMS_P1;PMS_P2;Temp;Humidity;BMP_temperature;BMP_pressure;BME280_temperature;BME280_humidity;BME280_pressure;Samples;Min_cycle;Max_cycle;Signal;HPM_P1;HPM_P2
2022/04/27 00:00:21;;;;;;;0.30;0.30;;;7.00;99.90;;;;;;5063950;28;20447;-81
2022/04/27 00:02:47;;;;;;;0.30;0.30;;;7.00;99.90;;;;;;5058592;28;20449;-81
2022/04/27 00:05:13;;;;;;;0.30;0.30;;;6.80;99.90;;;;;;5051533;28;20477;-82
2022/04/27 00:07:39;;;;;;;0.33;0.33;;;6.90;99.90;;;;;;5060483;28;20186;-82
2022/04/27 00:10:06;;;;;;;0.30;0.30;;;6.80;99.90;;;;;;5068599;28;20483;-82
2022/04/27 00:12:34;;;;;;;0.30;0.30;;;6.90;99.90;;;;;;5069953;28;20448;-82
2022/04/27 00:15:00;;;;;;;0.30;0.30;;;6.80;99.90;;;;;;5064757;28;20472;-81
2022/04/27 00:17:25;;;;;;;0.20;0.20;;;6.80;99.90;;;;;;5070361;28;20440;-81
2022/04/27 00:19:51;;;;;;;0.30;0.30;;;6.70;99.90;;;;;;5066553;28;20324;-81
2022/04/27 00:22:17;;;;;;;0.30;0.30;;;6.70;99.90;;;;;;5069312;28;20182;-82
2022/04/27 00:24:43;;;;;;;0.30;0.30;;;6.70;99.90;;;;;;5067005;28;20214;-81
2022/04/27 00:27:08;;;;;;;0.30;0.30;;;6.60;99.90;;;;;;5059373;28;20186;-82
2022/04/27 00:29:34;;;;;;;0.40;0.40;;;6.60;99.90;;;;;;5069817;28;20451;-81
2022/04/27 00:31:59;;;;;;;0.40;0.40;;;6.60;99.90;;;;;;5068944;28;20202;-82
2022/04/27 00:34:25;;;;;;;0.40;0.40;;;6.50;99.90;;;;;;5068275;28;20205;-81
2022/04/27 00:36:50;;;;;;;0.40;0.40;;;6.50;99.90;;;;;;5068577;28;20196;-81
2022/04/27 00:39:17;;;;;;;0.40;0.40;;;6.40;99.90;;;;;;5066741;28;20178;-82
2022/04/27 00:41:59;;;;;;;0.30;0.30;;;6.40;99.90;;;;;;5059794;28;20273;-82
2022/04/27 00:44:29;;;;;;;0.30;0.30;;;6.30;99.90;;;;;;5050677;28;20487;-82
2022/04/27 00:46:54;;;;;;;0.30;0.30;;;6.30;99.90;;;;;;5061871;28;20527;-81
2022/04/27 00:49:20;;;;;;;0.30;0.30;;;6.30;99.90;;;;;;5061331;28;20611;-81
2022/04/27 00:51:47;;;;;;;0.30;0.30;;;6.30;99.90;;;;;;5083349;28;20205;-82
2022/04/27 00:54:13;;;;;;;0.30;0.30;;;6.30;99.90;;;;;;5066264;28;20447;-81
2022/04/27 00:56:40;;;;;;;0.30;0.30;;;6.20;99.90;;;;;;5060468;28;20444;-81
2022/04/27 00:59:05;;;;;;;0.40;0.40;;;6.10;99.90;;;;;;5063142;28;20798;-81
2022/04/27 01:01:32;;;;;;;0.33;0.33;;;6.00;99.90;;;;;;5067051;28;20439;-82
2022/04/27 01:03:58;;;;;;;0.40;0.40;;;5.90;99.90;;;;;;5067260;28;20178;-82
2022/04/27 01:06:24;;;;;;;0.30;0.30;;;6.00;99.90;;;;;;5089200;28;20512;-82
2022/04/27 01:08:50;;;;;;;0.30;0.30;;;5.90;99.90;;;;;;5068442;28;20285;-82
2022/04/27 01:11:15;;;;;;;0.30;0.30;;;6.00;99.90;;;;;;5066561;28;20182;-82
2022/04/27 01:13:41;;;;;;;0.37;0.37;;;6.10;99.90;;;;;;5066738;28;20812;-81
2022/04/27 01:16:07;;;;;;;0.30;0.30;;;6.10;99.90;;;;;;5065574;28;20194;-82
2022/04/27 01:18:33;;;;;;;0.40;0.40;;;6.10;99.90;;;;;;5068905;28;20228;-82
2022/04/27 01:20:59;;;;;;;0.40;0.40;;;6.00;99.90;;;;;;5067141;28;20459;-81
2022/04/27 01:23:25;;;;;;;0.40;0.40;;;5.90;99.90;;;;;;5065930;28;20508;-82
2022/04/27 01:25:52;;;;;;;0.40;0.40;;;6.00;99.90;;;;;;5059877;28;20484;-81
2022/04/27 01:28:20;;;;;;;0.30;0.30;;;5.90;99.90;;;;;;5066812;28;20181;-82
2022/04/27 01:30:47;;;;;;;0.40;0.40;;;5.90;99.90;;;;;;5057878;28;20531;-82
2022/04/27 01:33:13;;;;;;;0.40;0.40;;;5.90;99.90;;;;;;5067688;28;21006;-81
2022/04/27 01:35:40;;;;;;;0.30;0.30;;;5.90;99.90;;;;;;5059666;28;20446;-82
2022/04/27 01:38:07;;;;;;;0.40;0.40;;;5.90;99.90;;;;;;5065447;28;20243;-81
2022/04/27 01:40:33;;;;;;;0.40;0.40;;;5.80;99.90;;;;;;5066496;28;20452;-81
2022/04/27 01:42:58;;;;;;;0.40;0.40;;;5.80;99.90;;;;;;5066273;28;20843;-81
2022/04/27 01:45:24;;;;;;;0.30;0.30;;;5.90;99.90;;;;;;5067931;28;20600;-81
2022/04/27 01:47:51;;;;;;;0.40;0.40;;;5.90;99.90;;;;;;5068278;28;20263;-82
2022/04/27 01:50:16;;;;;;;0.30;0.30;;;6.00;99.90;;;;;;5052363;28;20234;-81
2022/04/27 01:55:26;;;;;;;0.30;0.30;;;6.00;99.90;;;;;;5064952;28;20330;-82
2022/04/27 01:57:53;;;;;;;0.30;0.30;;;5.90;99.90;;;;;;5067343;28;20534;-82
2022/04/27 02:00:20;;;;;;;0.30;0.30;;;5.80;99.90;;;;;;5062457;28;20187;-82
2022/04/27 02:02:46;;;;;;;0.30;0.30;;;5.90;99.90;;;;;;5065772;28;20911;-81
2022/04/27 02:05:11;;;;;;;0.30;0.30;;;5.70;99.90;;;;;;5066491;28;20486;-81
2022/04/27 02:07:37;;;;;;;0.30;0.30;;;5.70;99.90;;;;;;5067545;28;20193;-81
2022/04/27 02:10:03;;;;;;;0.40;0.40;;;5.70;99.90;;;;;;5066238;28;20182;-82
2022/04/27 02:12:28;;;;;;;0.30;0.30;;;5.70;99.90;;;;;;5065859;28;20204;-82
2022/04/27 02:14:54;;;;;;;0.37;0.37;;;5.60;99.90;;;;;;5066805;28;20701;-81
2022/04/27 02:17:19;;;;;;;0.40;0.40;;;5.70;99.90;;;;;;5066296;28;20321;-81
2022/04/27 02:19:45;;;;;;;0.30;0.30;;;5.60;99.90;;;;;;5063582;28;20333;-81
2022/04/27 02:22:10;;;;;;;0.40;0.40;;;5.50;99.90;;;;;;5064882;28;20193;-81
2022/04/27 02:24:35;;;;;;;0.37;0.37;;;5.50;99.90;;;;;;5060584;28;20217;-81
2022/04/27 02:27:01;;;;;;;0.30;0.30;;;5.50;99.90;;;;;;5062734;28;20194;-81
2022/04/27 02:29:28;;;;;;;0.30;0.30;;;5.50;99.90;;;;;;5066020;28;20663;-81
2022/04/27 02:31:53;;;;;;;0.40;0.40;;;5.40;99.90;;;;;;5052850;28;20174;-82
2022/04/27 02:34:19;;;;;;;0.30;0.30;;;5.40;99.90;;;;;;5054123;28;20443;-81
2022/04/27 02:36:44;;;;;;;0.40;0.40;;;5.40;99.90;;;;;;5066221;28;20193;-81
2022/04/27 02:39:10;;;;;;;0.30;0.30;;;5.30;99.90;;;;;;5068551;28;20209;-81
2022/04/27 02:41:35;;;;;;;0.30;0.30;;;5.30;99.90;;;;;;5063609;28;20292;-81
2022/04/27 02:44:01;;;;;;;0.30;0.30;;;5.30;99.90;;;;;;5062158;28;20201;-82
2022/04/27 02:46:27;;;;;;;0.20;0.20;;;5.30;99.90;;;;;;5063160;28;20190;-81
2022/04/27 02:51:48;;;;;;;0.40;0.40;;;5.20;99.90;;;;;;5071211;28;20280;-82
2022/04/27 02:54:15;;;;;;;0.37;0.37;;;5.20;99.90;;;;;;5057361;28;20469;-84
2022/04/27 02:56:42;;;;;;;0.30;0.30;;;5.20;99.90;;;;;;5067602;28;20445;-84
2022/04/27 02:59:08;;;;;;;0.30;0.30;;;5.20;99.90;;;;;;5056198;28;20911;-84
2022/04/27 03:01:34;;;;;;;0.40;0.40;;;5.10;99.90;;;;;;5069055;28;20439;-83
2022/04/27 03:04:00;;;;;;;0.30;0.30;;;5.10;99.90;;;;;;5060332;28;20440;-84
2022/04/27 03:06:26;;;;;;;0.40;0.40;;;5.00;99.90;;;;;;5070213;28;20284;-83
2022/04/27 03:08:51;;;;;;;0.33;0.33;;;5.00;99.90;;;;;;5070344;28;20190;-84
2022/04/27 03:11:17;;;;;;;0.30;0.30;;;4.90;99.90;;;;;;5069874;28;20463;-84
2022/04/27 03:13:42;;;;;;;0.30;0.30;;;4.90;99.90;;;;;;5067647;28;20195;-84
2022/04/27 03:16:08;;;;;;;0.40;0.40;;;4.80;99.90;;;;;;5063061;28;20724;-84
2022/04/27 03:18:33;;;;;;;0.40;0.40;;;4.80;99.90;;;;;;5068137;28;20263;-84
2022/04/27 03:20:59;;;;;;;0.37;0.37;;;4.80;99.90;;;;;;5069613;28;20200;-84
2022/04/27 03:23:24;;;;;;;0.40;0.40;;;4.80;99.90;;;;;;5070997;28;20335;-84
2022/04/27 03:25:50;;;;;;;0.40;0.40;;;4.80;99.90;;;;;;5068525;28;20228;-82
2022/04/27 03:28:16;;;;;;;0.30;0.30;;;4.90;99.90;;;;;;5064568;28;20182;-82
2022/04/27 03:30:42;;;;;;;0.40;0.40;;;4.80;99.90;;;;;;5061181;28;20620;-83
2022/04/27 03:33:07;;;;;;;0.40;0.40;;;4.80;99.90;;;;;;5071604;28;20243;-82
2022/04/27 03:35:33;;;;;;;0.40;0.40;;;4.90;99.90;;;;;;5061014;28;20385;-81
2022/04/27 03:37:59;;;;;;;0.40;0.40;;;4.90;99.90;;;;;;5067325;28;20232;-82
2022/04/27 03:40:25;;;;;;;0.40;0.40;;;4.80;99.90;;;;;;5058600;28;20178;-83
2022/04/27 03:42:51;;;;;;;0.40;0.40;;;4.80;99.90;;;;;;5062888;28;21164;-83
2022/04/27 03:45:19;;;;;;;0.40;0.40;;;4.80;99.90;;;;;;5078585;28;20582;-82
2022/04/27 03:47:47;;;;;;;0.40;0.40;;;4.80;99.90;;;;;;5057677;28;20194;-82
2022/04/27 03:50:14;;;;;;;0.40;0.40;;;4.70;99.90;;;;;;5066709;28;20498;-82
2022/04/27 03:52:40;;;;;;;0.30;0.30;;;4.70;99.90;;;;;;5057935;28;20885;-82
2022/04/27 03:55:06;;;;;;;0.33;0.33;;;4.60;99.90;;;;;;5066761;28;20496;-82
2022/04/27 03:57:31;;;;;;;0.40;0.40;;;4.60;99.90;;;;;;5068005;28;20439;-82
2022/04/27 03:59:57;;;;;;;0.40;0.40;;;4.60;99.90;;;;;;5060380;28;20280;-82
2022/04/27 04:02:22;;;;;;;0.40;0.40;;;4.60;99.90;;;;;;5073747;28;20293;-82
2022/04/27 04:04:48;;;;;;;0.30;0.30;;;4.60;99.90;;;;;;5064903;28;20669;-83
2022/04/27 04:07:14;;;;;;;0.47;0.47;;;4.50;99.90;;;;;;5069283;28;20200;-83
2022/04/27 04:09:39;;;;;;;0.40;0.40;;;4.60;99.90;;;;;;5066794;28;20741;-83
2022/04/27 04:12:06;;;;;;;0.30;0.30;;;4.60;99.90;;;;;;5064146;28;20194;-82
2022/04/27 04:14:32;;;;;;;0.40;0.40;;;4.60;99.90;;;;;;5066616;28;20187;-83
2022/04/27 04:16:57;;;;;;;0.40;0.40;;;4.60;99.90;;;;;;5057870;28;20440;-83
2022/04/27 04:19:23;;;;;;;0.33;0.33;;;4.70;99.90;;;;;;5066002;28;20244;-83
2022/04/27 04:21:48;;;;;;;0.40;0.40;;;4.70;99.90;;;;;;5062002;28;20594;-83
2022/04/27 04:24:14;;;;;;;0.33;0.33;;;4.80;99.90;;;;;;5062926;28;20333;-83
2022/04/27 04:29:24;;;;;;;0.40;0.40;;;4.80;99.90;;;;;;5077688;28;20204;-82
2022/04/27 04:31:50;;;;;;;0.40;0.40;;;4.90;99.90;;;;;;5059139;28;20926;-81
2022/04/27 04:34:15;;;;;;;0.40;0.40;;;4.90;99.90;;;;;;5079195;28;20190;-81
2022/04/27 04:36:41;;;;;;;0.40;0.40;;;4.90;99.90;;;;;;5066484;28;20186;-83
2022/04/27 04:39:06;;;;;;;0.33;0.33;;;5.00;99.90;;;;;;5066724;28;20327;-83
2022/04/27 04:41:32;;;;;;;0.37;0.37;;;5.00;99.90;;;;;;5063499;28;20188;-82
2022/04/27 04:43:57;;;;;;;0.30;0.30;;;5.00;99.90;;;;;;5071182;28;20189;-82
2022/04/27 04:46:23;;;;;;;0.30;0.30;;;4.90;99.90;;;;;;5072708;28;20190;-83
2022/04/27 04:48:49;;;;;;;0.30;0.30;;;5.00;99.90;;;;;;5065976;28;20199;-83
2022/04/27 04:51:14;;;;;;;0.30;0.30;;;5.00;99.90;;;;;;5070675;28;20557;-83
2022/04/27 04:53:40;;;;;;;0.40;0.40;;;5.00;99.90;;;;;;5067650;28;20181;-83
2022/04/27 04:56:05;;;;;;;0.57;0.57;;;5.10;99.90;;;;;;5066583;28;20189;-83
2022/04/27 04:58:31;;;;;;;0.30;0.30;;;5.20;99.90;;;;;;5065997;28;20185;-83
2022/04/27 05:00:56;;;;;;;0.40;0.40;;;5.20;99.90;;;;;;5052683;28;20186;-83
2022/04/27 05:03:21;;;;;;;0.30;0.30;;;5.20;99.90;;;;;;5063792;28;20186;-82
2022/04/27 05:05:47;;;;;;;0.37;0.37;;;5.30;99.90;;;;;;5060673;28;20699;-83
2022/04/27 05:08:13;;;;;;;0.30;0.30;;;5.40;99.90;;;;;;5066771;28;20259;-82
2022/04/27 05:10:39;;;;;;;0.30;0.30;;;5.40;99.90;;;;;;5055451;28;20816;-81
2022/04/27 05:13:04;;;;;;;0.40;0.40;;;5.50;99.90;;;;;;5062013;28;20197;-81
2022/04/27 05:15:30;;;;;;;0.30;0.30;;;5.60;99.90;;;;;;5067177;28;20185;-81
2022/04/27 05:17:56;;;;;;;0.40;0.40;;;5.70;99.90;;;;;;5078089;28;20213;-81
2022/04/27 05:20:22;;;;;;;0.30;0.30;;;5.70;99.90;;;;;;5084816;28;20193;-82
2022/04/27 05:22:47;;;;;;;0.30;0.30;;;5.90;99.90;;;;;;5078627;28;20818;-81
2022/04/27 05:25:13;;;;;;;0.40;0.40;;;6.00;99.90;;;;;;5078403;28;20373;-82
2022/04/27 05:27:38;;;;;;;0.40;0.40;;;6.10;99.90;;;;;;5068677;28;20264;-82
2022/04/27 05:32:50;;;;;;;0.30;0.30;;;6.20;99.90;;;;;;5071866;28;20277;-81
2022/04/27 05:35:15;;;;;;;0.40;0.40;;;6.40;99.90;;;;;;5073844;28;20531;-82
2022/04/27 05:37:41;;;;;;;0.50;0.50;;;6.50;99.90;;;;;;5067177;28;20178;-82
2022/04/27 05:40:08;;;;;;;0.40;0.40;;;6.70;99.90;;;;;;5060937;28;20188;-82
2022/04/27 05:42:36;;;;;;;0.40;0.40;;;6.80;99.90;;;;;;5061760;28;20961;-82
2022/04/27 05:45:07;;;;;;;0.40;0.40;;;6.90;99.90;;;;;;5070252;28;20582;-81
2022/04/27 05:47:33;;;;;;;0.40;0.40;;;6.90;99.90;;;;;;5065131;28;20432;-82
2022/04/27 05:49:59;;;;;;;0.40;0.40;;;7.10;99.90;;;;;;5057933;28;20943;-82
2022/04/27 05:52:24;;;;;;;0.50;0.50;;;7.10;99.90;;;;;;5069192;28;20432;-83
2022/04/27 05:54:51;;;;;;;0.30;0.30;;;7.30;99.90;;;;;;5069844;28;20184;-83
2022/04/27 05:57:17;;;;;;;0.40;0.40;;;7.20;99.90;;;;;;5075280;28;20250;-82
2022/04/27 05:59:43;;;;;;;0.40;0.40;;;7.40;99.90;;;;;;5058254;28;20445;-83
2022/04/27 06:02:09;;;;;;;0.30;0.30;;;7.50;99.90;;;;;;5083867;28;20824;-82
2022/04/27 06:04:35;;;;;;;0.40;0.40;;;7.60;99.90;;;;;;5057615;28;20469;-84
2022/04/27 06:07:00;;;;;;;0.30;0.30;;;7.60;99.90;;;;;;5072715;28;20232;-84
2022/04/27 06:09:26;;;;;;;0.40;0.40;;;7.90;99.90;;;;;;5051086;28;20186;-83
2022/04/27 06:11:51;;;;;;;0.40;0.40;;;7.90;99.90;;;;;;5082887;28;20189;-83
2022/04/27 06:14:17;;;;;;;0.33;0.33;;;8.00;99.90;;;;;;5063406;28;20194;-83
2022/04/27 06:16:42;;;;;;;0.30;0.30;;;8.20;99.90;;;;;;5078586;28;20555;-83
2022/04/27 06:19:09;;;;;;;0.40;0.40;;;8.30;99.90;;;;;;5068078;28;20226;-84
2022/04/27 06:21:36;;;;;;;0.30;0.30;;;8.20;99.90;;;;;;5074701;28;20181;-84
2022/04/27 06:24:04;;;;;;;0.20;0.20;;;8.30;99.90;;;;;;5064109;28;20436;-84
2022/04/27 06:26:33;;;;;;;0.30;0.30;;;8.40;99.90;;;;;;5074216;28;20455;-82
2022/04/27 06:28:59;;;;;;;0.30;0.30;;;8.40;99.90;;;;;;5058015;28;20493;-83
2022/04/27 06:31:24;;;;;;;0.30;0.30;;;8.50;99.90;;;;;;5061594;28;20448;-83
2022/04/27 06:33:50;;;;;;;0.20;0.20;;;8.70;99.90;;;;;;5060916;28;20439;-83
2022/04/27 06:36:15;;;;;;;0.30;0.30;;;9.00;99.90;;;;;;5059839;28;20185;-79
2022/04/27 06:38:41;;;;;;;0.20;0.20;;;9.10;99.90;;;;;;5065527;28;20238;-80
2022/04/27 06:41:06;;;;;;;0.20;0.20;;;9.30;99.90;;;;;;5057717;28;20225;-78
2022/04/27 06:43:32;;;;;;;0.20;0.20;;;9.40;99.90;;;;;;5062973;28;20194;-78
2022/04/27 06:45:59;;;;;;;0.20;0.20;;;9.40;99.90;;;;;;5070205;28;20221;-79
2022/04/27 06:48:25;;;;;;;0.30;0.30;;;9.50;99.90;;;;;;5057346;28;20296;-80
2022/04/27 06:50:50;;;;;;;0.30;0.30;;;9.50;99.90;;;;;;5061636;28;20832;-83
2022/04/27 06:53:16;;;;;;;0.20;0.20;;;9.70;99.90;;;;;;5062081;28;20234;-83
2022/04/27 06:55:42;;;;;;;0.20;0.20;;;10.00;99.90;;;;;;5073642;28;20200;-83
2022/04/27 06:58:07;;;;;;;0.20;0.20;;;10.20;99.90;;;;;;5059183;28;20443;-83
2022/04/27 07:00:33;;;;;;;0.30;0.30;;;10.30;99.90;;;;;;5068070;28;20223;-84
2022/04/27 07:02:59;;;;;;;0.20;0.20;;;10.50;99.90;;;;;;5065293;28;20186;-83
2022/04/27 07:05:26;;;;;;;0.20;0.20;;;10.50;99.90;;;;;;5082103;28;20257;-84
2022/04/27 07:07:51;;;;;;;0.20;0.20;;;10.40;99.90;;;;;;5067745;28;20182;-83
2022/04/27 07:10:19;;;;;;;0.20;0.20;;;10.50;99.90;;;;;;5075387;28;21605;-83
2022/04/27 07:12:46;;;;;;;0.20;0.20;;;10.70;99.90;;;;;;5067834;28;20189;-83
2022/04/27 07:15:12;;;;;;;0.20;0.20;;;10.80;99.90;;;;;;5089749;28;20443;-84
2022/04/27 07:17:38;;;;;;;0.20;0.20;;;10.80;99.90;;;;;;5070462;28;20515;-83
2022/04/27 07:20:05;;;;;;;0.20;0.20;;;10.80;99.90;;;;;;5078656;28;20478;-83
2022/04/27 07:22:31;;;;;;;0.20;0.20;;;10.80;99.90;;;;;;5059543;28;20479;-83
2022/04/27 07:24:56;;;;;;;0.20;0.20;;;10.60;99.90;;;;;;5063505;28;20998;-83
2022/04/27 07:27:22;;;;;;;0.20;0.20;;;10.80;99.90;;;;;;5059678;28;20186;-84
2022/04/27 07:29:47;;;;;;;0.20;0.20;;;11.00;99.90;;;;;;5069978;28;20192;-84
2022/04/27 07:32:13;;;;;;;0.20;0.20;;;10.70;99.90;;;;;;5067814;28;20205;-83
2022/04/27 07:34:38;;;;;;;0.20;0.20;;;11.00;99.90;;;;;;5070269;28;20186;-84
2022/04/27 07:37:05;;;;;;;0.20;0.20;;;11.30;99.90;;;;;;5061896;28;20243;-84
2022/04/27 07:39:31;;;;;;;0.20;0.20;;;11.10;99.90;;;;;;5068857;28;20609;-84
2022/04/27 07:41:57;;;;;;;0.20;0.20;;;11.20;99.90;;;;;;5061883;28;20450;-84
2022/04/27 07:44:22;;;;;;;0.20;0.20;;;11.50;99.90;;;;;;5067166;28;20471;-85
2022/04/27 07:46:48;;;;;;;0.20;0.20;;;11.60;99.90;;;;;;5070308;28;20225;-85
2022/04/27 07:49:16;;;;;;;0.20;0.20;;;11.40;99.90;;;;;;5086399;28;20185;-86
2022/04/27 07:51:41;;;;;;;0.20;0.20;;;11.50;99.90;;;;;;5080941;28;20566;-85
2022/04/27 07:54:07;;;;;;;0.20;0.20;;;11.50;99.90;;;;;;5061405;28;20497;-84
2022/04/27 07:56:32;;;;;;;0.20;0.20;;;11.30;99.90;;;;;;5065047;28;20235;-85
2022/04/27 07:58:58;;;;;;;0.20;0.20;;;10.90;99.90;;;;;;5061761;28;20334;-84
2022/04/27 08:01:24;;;;;;;0.20;0.20;;;11.10;99.90;;;;;;5066932;28;20178;-86
2022/04/27 08:03:49;;;;;;;0.20;0.20;;;11.60;99.90;;;;;;5069978;28;20193;-86
2022/04/27 08:06:15;;;;;;;0.10;0.10;;;11.70;99.90;;;;;;5084519;28;20764;-85
2022/04/27 08:08:41;;;;;;;0.10;0.10;;;12.10;99.90;;;;;;5082456;28;20177;-85
2022/04/27 08:11:07;;;;;;;0.20;0.20;;;11.70;99.90;;;;;;5089966;28;20983;-84
2022/04/27 08:13:33;;;;;;;0.20;0.20;;;11.10;99.90;;;;;;5072793;28;20177;-85
2022/04/27 08:15:59;;;;;;;0.20;0.20;;;11.40;99.90;;;;;;5066374;28;20516;-86
2022/04/27 08:18:24;;;;;;;0.20;0.20;;;11.40;99.90;;;;;;5079366;28;20471;-85
2022/04/27 08:23:36;;;;;;;0.20;0.20;;;12.30;99.90;;;;;;5073848;28;20188;-85
2022/04/27 08:26:04;;;;;;;0.20;0.20;;;12.60;99.90;;;;;;5087155;28;20478;-86
2022/04/27 08:28:31;;;;;;;0.10;0.10;;;12.00;99.90;;;;;;5064177;28;20436;-85
2022/04/27 08:30:57;;;;;;;0.20;0.20;;;12.10;99.90;;;;;;5067108;28;20439;-86
2022/04/27 08:33:22;;;;;;;0.20;0.20;;;12.50;99.90;;;;;;5063099;28;20927;-85
2022/04/27 08:35:49;;;;;;;0.10;0.10;;;12.60;99.90;;;;;;5066055;28;20235;-85
2022/04/27 08:38:15;;;;;;;0.20;0.20;;;12.80;99.90;;;;;;5069682;28;20186;-86
2022/04/27 08:40:44;;;;;;;0.10;0.10;;;13.00;99.90;;;;;;5071323;28;20427;-85
2022/04/27 08:43:11;;;;;;;0.10;0.10;;;13.40;99.90;;;;;;5068237;28;20205;-85
2022/04/27 08:45:38;;;;;;;0.10;0.10;;;14.00;99.90;;;;;;5077930;28;20522;-85
2022/04/27 08:48:05;;;;;;;0.10;0.10;;;13.40;99.90;;;;;;5079649;28;20440;-86
2022/04/27 08:50:31;;;;;;;0.10;0.10;;;13.90;99.90;;;;;;5075643;28;20447;-86
2022/04/27 08:52:56;;;;;;;0.10;0.10;;;14.30;99.90;;;;;;5066939;28;20497;-86
2022/04/27 08:55:23;;;;;;;0.10;0.10;;;14.20;99.90;;;;;;5062436;28;20193;-86
2022/04/27 08:57:49;;;;;;;0.10;0.10;;;13.40;99.90;;;;;;5071029;28;20192;-86
2022/04/27 09:00:17;;;;;;;0.10;0.10;;;13.80;99.90;;;;;;5061725;28;20531;-87
2022/04/27 09:02:43;;;;;;;0.10;0.10;;;14.10;99.90;;;;;;5070046;28;20586;-85
2022/04/27 09:05:14;;;;;;;0.10;0.10;;;14.10;99.90;;;;;;5066897;28;20897;-85
2022/04/27 09:07:50;;;;;;;0.10;0.10;;;13.90;99.90;;;;;;5066505;28;21061;-87
2022/04/27 09:10:17;;;;;;;0.10;0.10;;;13.70;99.90;;;;;;5062016;28;20451;-86
2022/04/27 09:12:48;;;;;;;0.10;0.10;;;14.00;99.90;;;;;;5053772;28;20443;-86
2022/04/27 09:15:15;;;;;;;0.10;0.10;;;14.00;99.90;;;;;;5062967;28;20480;-86
2022/04/27 09:23:25;;;;;;;0.10;0.10;;;14.60;99.90;;;;;;5072749;28;20451;-86
2022/04/27 09:25:56;;;;;;;0.10;0.10;;;14.60;99.90;;;;;;5069667;28;20478;-85
2022/04/27 09:28:23;;;;;;;0.10;0.10;;;14.50;99.90;;;;;;5065498;28;20436;-87
2022/04/27 09:30:50;;;;;;;0.10;0.10;;;14.70;99.90;;;;;;5081315;28;20458;-87
2022/04/27 09:33:35;;;;;;;0.10;0.10;;;14.80;99.90;;;;;;5056373;28;21112;-86
2022/04/27 09:36:02;;;;;;;0.10;0.10;;;14.50;99.90;;;;;;5071598;28;20443;-87
2022/04/27 09:38:39;;;;;;;0.10;0.10;;;14.70;99.90;;;;;;5073516;28;20439;-85
2022/04/27 09:41:05;;;;;;;0.10;0.10;;;14.30;99.90;;;;;;5078411;28;20527;-85
2022/04/27 09:43:42;;;;;;;0.10;0.10;;;14.80;99.90;;;;;;5066751;28;20574;-86
2022/04/27 09:46:40;;;;;;;0.10;0.10;;;15.30;99.90;;;;;;5068015;28;20705;-86
2022/04/27 09:49:12;;;;;;;0.10;0.10;;;15.80;99.90;;;;;;5070236;28;20447;-89
2022/04/27 09:51:51;;;;;;;0.10;0.10;;;16.30;99.90;;;;;;5058317;28;20448;-89
2022/04/27 09:54:23;;;;;;;0.10;0.10;;;16.70;99.90;;;;;;5068507;28;20467;-88
2022/04/27 09:56:56;;;;;;;0.10;0.10;;;16.60;99.90;;;;;;5063690;28;20452;-90
2022/04/27 09:59:29;;;;;;;0.10;0.10;;;16.90;99.90;;;;;;5061023;28;20440;-90
2022/04/27 10:01:57;;;;;;;0.10;0.10;;;17.40;99.90;;;;;;5066221;28;20444;-90
2022/04/27 10:04:25;;;;;;;0.10;0.10;;;17.40;99.90;;;;;;5068123;28;20827;-89
2022/04/27 10:06:52;;;;;;;0.00;0.00;;;17.60;99.90;;;;;;5059099;28;20481;-88
2022/04/27 10:09:18;;;;;;;0.10;0.10;;;17.70;99.90;;;;;;5074157;28;20448;-88
2022/04/27 10:11:44;;;;;;;0.10;0.10;;;17.90;99.90;;;;;;5064026;28;20579;-90
2022/04/27 10:14:10;;;;;;;0.10;0.10;;;15.90;99.90;;;;;;5064616;28;20222;-85
2022/04/27 10:16:36;;;;;;;0.10;0.10;;;15.80;99.90;;;;;;5072119;28;20451;-85
2022/04/27 10:19:02;;;;;;;0.10;0.10;;;16.40;99.90;;;;;;5071939;28;20499;-88
2022/04/27 10:22:01;;;;;;;0.10;0.10;;;15.80;99.90;;;;;;5071842;28;20187;-85
2022/04/27 10:24:42;;;;;;;0.10;0.10;;;15.50;99.90;;;;;;5058586;28;20472;-91
2022/04/27 10:27:39;;;;;;;0.10;0.10;;;16.70;99.90;;;;;;5067714;28;20528;-88
2022/04/27 10:30:08;;;;;;;0.10;0.10;;;17.40;99.90;;;;;;5063490;28;20514;-90
2022/04/27 10:32:34;;;;;;;0.10;0.10;;;16.10;99.90;;;;;;5053008;28;20461;-87
2022/04/27 10:35:22;;;;;;;0.00;0.00;;;15.60;99.90;;;;;;5057072;28;20438;-86
2022/04/27 10:37:51;;;;;;;0.10;0.10;;;15.20;99.90;;;;;;5072327;28;21035;-85
2022/04/27 10:40:29;;;;;;;0.10;0.10;;;15.10;99.90;;;;;;5068688;28;20457;-86
2022/04/27 10:43:12;;;;;;;0.07;0.07;;;14.90;99.90;;;;;;5064387;28;20428;-86
2022/04/27 10:45:43;;;;;;;0.10;0.10;;;15.80;99.90;;;;;;5073237;28;20525;-87
2022/04/27 10:48:15;;;;;;;0.10;0.10;;;16.80;99.90;;;;;;5094830;28;20439;-87
2022/04/27 10:50:56;;;;;;;0.10;0.10;;;16.80;99.90;;;;;;5080101;28;20467;-87
2022/04/27 10:53:30;;;;;;;0.10;0.10;;;16.50;99.60;;;;;;5098181;28;20442;-86
2022/04/27 10:55:58;;;;;;;0.10;0.10;;;15.80;99.50;;;;;;5073335;28;20436;-85
2022/04/27 10:58:42;;;;;;;0.10;0.10;;;15.60;99.90;;;;;;5072421;28;20450;-84
2022/04/27 11:01:11;;;;;;;0.10;0.10;;;14.80;99.90;;;;;;5069568;28;20479;-86
2022/04/27 11:03:38;;;;;;;0.10;0.10;;;15.80;99.90;;;;;;5064409;28;20482;-84
2022/04/27 11:06:08;;;;;;;0.10;0.10;;;16.20;99.90;;;;;;5065644;28;20490;-84
2022/04/27 11:08:53;;;;;;;0.10;0.10;;;16.00;99.90;;;;;;5060891;28;20955;-83
2022/04/27 11:11:24;;;;;;;0.10;0.10;;;16.20;99.90;;;;;;5076444;28;20440;-85
2022/04/27 11:13:51;;;;;;;0.10;0.10;;;16.40;99.90;;;;;;5065477;28;20443;-85
2022/04/27 11:16:16;;;;;;;0.10;0.10;;;17.00;99.70;;;;;;5065689;28;20443;-85
2022/04/27 11:18:49;;;;;;;0.10;0.10;;;16.90;99.90;;;;;;5076087;28;20489;-85
2022/04/27 11:21:19;;;;;;;0.10;0.10;;;16.60;99.90;;;;;;5079339;28;20189;-87
2022/04/27 11:23:45;;;;;;;0.10;0.10;;;16.10;99.90;;;;;;5087156;28;20443;-85
2022/04/27 11:26:13;;;;;;;0.10;0.10;;;16.10;99.90;;;;;;5067759;28;20476;-83
2022/04/27 11:28:57;;;;;;;0.10;0.10;;;16.70;99.90;;;;;;5055156;28;20289;-86
2022/04/27 11:31:26;;;;;;;0.10;0.10;;;17.60;99.90;;;;;;5062548;28;20471;-87
2022/04/27 11:33:52;;;;;;;0.10;0.00;;;17.90;99.20;;;;;;5083911;28;20429;-89
2022/04/27 11:36:23;;;;;;;0.00;0.00;;;17.60;98.50;;;;;;5054213;28;20478;-87
2022/04/27 11:38:49;;;;;;;0.10;0.10;;;16.90;99.60;;;;;;5072839;28;20427;-89
2022/04/27 11:41:23;;;;;;;0.10;0.10;;;17.00;99.10;;;;;;5070242;28;20439;-87
2022/04/27 11:43:50;;;;;;;0.10;0.10;;;16.00;99.90;;;;;;5058445;28;20451;-88
2022/04/27 11:46:17;;;;;;;0.10;0.10;;;16.20;99.90;;;;;;5070554;28;20483;-87
2022/04/27 11:48:50;;;;;;;0.10;0.10;;;15.60;99.90;;;;;;5059001;28;20797;-87
2022/04/27 11:51:16;;;;;;;0.10;0.10;;;15.70;99.90;;;;;;5068589;28;20540;-86
2022/04/27 11:53:54;;;;;;;0.10;0.10;;;15.10;99.90;;;;;;5067135;28;20534;-83
2022/04/27 11:56:19;;;;;;;0.10;0.07;;;14.80;99.90;;;;;;5067392;28;20239;-84
2022/04/27 11:58:46;;;;;;;0.10;0.10;;;14.60;99.90;;;;;;5074934;28;20447;-84
2022/04/27 12:01:20;;;;;;;0.10;0.10;;;15.10;99.90;;;;;;5072998;28;20181;-83
2022/04/27 12:03:49;;;;;;;0.10;0.10;;;14.90;99.00;;;;;;5086437;28;20841;-83
2022/04/27 12:06:20;;;;;;;0.10;0.10;;;15.00;99.60;;;;;;5066290;28;20480;-81
2022/04/27 12:08:46;;;;;;;0.10;0.10;;;15.00;99.90;;;;;;5066574;28;20467;-82
2022/04/27 12:11:23;;;;;;;0.10;0.10;;;14.90;99.30;;;;;;5054990;28;20480;-84
2022/04/27 12:13:54;;;;;;;0.10;0.10;;;15.20;99.20;;;;;;5062375;28;20182;-87
2022/04/27 12:16:20;;;;;;;0.10;0.10;;;14.80;99.90;;;;;;5068641;28;20467;-86
2022/04/27 12:18:51;;;;;;;0.10;0.10;;;14.70;99.90;;;;;;5068512;28;20480;-90
2022/04/27 12:21:27;;;;;;;0.10;0.10;;;14.60;99.90;;;;;;5071637;28;20285;-85
2022/04/27 12:24:01;;;;;;;0.10;0.10;;;14.70;99.90;;;;;;5084346;28;20436;-84
2022/04/27 12:26:40;;;;;;;0.10;0.10;;;14.50;99.90;;;;;;5063662;28;20990;-85
2022/04/27 12:29:10;;;;;;;0.10;0.10;;;15.00;99.90;;;;;;5074007;28;20432;-86
2022/04/27 12:31:37;;;;;;;0.10;0.10;;;15.50;99.90;;;;;;5079436;28;20451;-86
2022/04/27 12:37:29;;;;;;;0.10;0.10;;;15.70;99.90;;;;;;5079512;28;20454;-88
2022/04/27 12:39:39;;;;;;;0.10;0.10;;;16.00;98.40;;;;;;5066090;28;20443;-88
2022/04/27 12:42:16;;;;;;;0.10;0.10;;;16.40;97.70;;;;;;5070706;28;20567;-88
2022/04/27 12:44:45;;;;;;;0.10;0.10;;;17.90;96.60;;;;;;5068902;28;20459;-88
2022/04/27 12:49:50;;;;;;;0.10;0.10;;;16.60;94.30;;;;;;5097989;23;20908;-85
2022/04/27 12:52:26;;;;;;;0.10;0.10;;;15.60;95.40;;;;;;4999331;28;20448;-85
2022/04/27 12:55:09;;;;;;;0.10;0.10;;;15.50;96.20;;;;;;5003473;28;20438;-86
2022/04/27 12:57:44;;;;;;;0.10;0.10;;;16.20;96.80;;;;;;5010378;28;20822;-85
2022/04/27 13:00:11;;;;;;;0.00;0.00;;;16.70;95.50;;;;;;5006293;28;20443;-86
2022/04/27 13:02:37;;;;;;;0.00;0.00;;;15.70;96.20;;;;;;5007249;28;21104;-85
2022/04/27 13:05:03;;;;;;;0.00;0.00;;;15.90;97.60;;;;;;5008996;28;20540;-85
2022/04/27 13:07:29;;;;;;;0.00;0.00;;;17.20;97.60;;;;;;5000853;28;20448;-85
2022/04/27 13:12:39;;;;;;;0.00;0.00;;;19.30;91.20;;;;;;5000295;28;20207;-86
2022/04/27 13:15:06;;;;;;;0.00;0.00;;;19.40;90.20;;;;;;5009390;28;20439;-85
2022/04/27 13:17:32;;;;;;;0.00;0.00;;;18.90;93.00;;;;;;5010619;28;20180;-85
2022/04/27 13:19:58;;;;;;;0.00;0.00;;;17.50;93.60;;;;;;5009535;28;20454;-85
2022/04/27 13:22:24;;;;;;;0.00;0.00;;;17.10;95.80;;;;;;5007179;28;20447;-86